createdAt,value
2019-01-08T00:01:08.159Z,87.023926
2019-01-08T00:02:19.587Z,87.127686
2019-01-08T00:03:31.090Z,86.920166
2019-01-08T00:04:42.582Z,87.023926
2019-01-08T00:05:53.612Z,86.816406
2019-01-08T00:07:05.087Z,87.023926
2019-01-08T00:08:16.593Z,86.920166
2019-01-08T00:09:28.088Z,86.816406
2019-01-08T00:10:39.609Z,86.608887
2019-01-08T00:11:51.102Z,86.505127
2019-01-08T00:13:02.590Z,86.395264
2019-01-08T00:14:14.083Z,86.395264
2019-01-08T00:15:25.599Z,86.395264
2019-01-08T00:16:37.090Z,86.505127
2019-01-08T00:17:48.591Z,86.291504
2019-01-08T00:19:00.100Z,86.187744
2019-01-08T00:20:11.609Z,85.980225
2019-01-08T00:21:23.085Z,85.772705
2019-01-08T00:22:34.599Z,85.559082
2019-01-08T00:23:46.078Z,85.668945
2019-01-08T00:24:57.587Z,86.187744
2019-01-08T00:26:09.100Z,86.291504
2019-01-08T00:27:18.619Z,86.187744
2019-01-08T00:28:30.092Z,85.876465
2019-01-08T00:29:41.586Z,86.083984
2019-01-08T00:30:53.095Z,85.559082
2019-01-08T00:32:04.591Z,85.772705
2019-01-08T00:33:16.081Z,85.626221
2019-01-08T00:34:27.586Z,85.626221
2019-01-08T00:35:39.105Z,85.72998
2019-01-08T00:36:50.588Z,85.772705
2019-01-08T00:38:02.085Z,85.211182
2019-01-08T00:39:13.601Z,85.211182
2019-01-08T00:40:25.103Z,85.211182
2019-01-08T00:41:36.592Z,84.893799
2019-01-08T00:42:48.090Z,84.686279
2019-01-08T00:43:59.587Z,84.375
2019-01-08T00:45:11.082Z,84.375
2019-01-08T00:46:22.605Z,84.58252
2019-01-08T00:47:34.169Z,84.375
2019-01-08T00:48:45.588Z,84.58252
2019-01-08T00:49:57.086Z,84.27124
2019-01-08T00:51:08.597Z,84.16748
2019-01-08T00:52:20.092Z,84.686279
2019-01-08T00:53:32.617Z,84.375
2019-01-08T00:54:45.620Z,83.850098
2019-01-08T00:55:55.600Z,84.16748
2019-01-08T00:57:07.097Z,84.063721
2019-01-08T00:58:18.583Z,83.850098
2019-01-08T00:59:30.077Z,83.746338
2019-01-08T01:00:41.601Z,83.953857
2019-01-08T01:01:53.083Z,84.16748
2019-01-08T01:03:04.580Z,83.953857
2019-01-08T01:04:16.081Z,84.375
2019-01-08T01:05:27.580Z,84.375
2019-01-08T01:06:39.098Z,84.790039
2019-01-08T01:07:50.580Z,84.893799
2019-01-08T01:09:02.084Z,85.522461
2019-01-08T01:10:13.588Z,85.772705
2019-01-08T01:11:25.107Z,85.980225
2019-01-08T01:12:36.585Z,86.083984
2019-01-08T01:13:48.093Z,86.291504
2019-01-08T01:14:59.615Z,87.445068
2019-01-08T01:16:11.095Z,87.652588
2019-01-08T01:17:22.592Z,88.171387
2019-01-08T01:18:34.112Z,88.48877
2019-01-08T01:19:45.586Z,88.842773
2019-01-08T01:20:57.101Z,88.842773
2019-01-08T01:22:08.599Z,89.154053
2019-01-08T01:23:20.074Z,89.361572
2019-01-08T01:24:31.580Z,89.361572
2019-01-08T01:25:43.098Z,89.575195
2019-01-08T01:26:54.596Z,90.411377
2019-01-08T01:28:06.079Z,91.033936
2019-01-08T01:29:17.579Z,90.826416
2019-01-08T01:30:29.080Z,91.247559
2019-01-08T01:31:40.595Z,91.033936
2019-01-08T01:32:52.093Z,91.143799
2019-01-08T01:34:03.580Z,91.662598
2019-01-08T01:35:15.096Z,91.455078
2019-01-08T01:36:26.599Z,91.033936
2019-01-08T01:37:38.081Z,91.351318
2019-01-08T01:38:49.585Z,91.351318
2019-01-08T01:40:01.089Z,91.033936
2019-01-08T01:41:12.606Z,91.351318
2019-01-08T01:42:24.077Z,90.930176
2019-01-08T01:43:35.584Z,91.143799
2019-01-08T01:44:47.083Z,90.930176
2019-01-08T01:45:56.640Z,91.247559
2019-01-08T01:47:08.095Z,91.455078
2019-01-08T01:48:19.592Z,91.97998
2019-01-08T01:49:31.078Z,91.809082
2019-01-08T01:50:42.590Z,92.016602
2019-01-08T01:51:54.090Z,92.230225
2019-01-08T01:53:05.575Z,92.645264
2019-01-08T01:54:17.078Z,92.962646
2019-01-08T01:55:28.577Z,93.273926
2019-01-08T01:56:40.099Z,93.585205
2019-01-08T01:57:51.576Z,94.049072
2019-01-08T01:59:08.245Z,94.360352
2019-01-08T02:00:15.577Z,94.677734
2019-01-08T02:01:27.130Z,94.677734
2019-01-08T04:56:08.087Z,93.170166
2019-01-08T04:57:19.603Z,93.585205
2019-01-08T04:58:31.056Z,94.006348
2019-01-08T04:59:42.549Z,94.317627
2019-01-08T05:00:54.069Z,94.677734
2019-01-08T05:02:05.582Z,94.677734
2019-01-08T05:03:16.149Z,94.781494
2019-01-08T05:04:27.606Z,94.885254
2019-01-08T05:05:39.081Z,94.989014
2019-01-08T05:06:50.586Z,95.050049
2019-01-08T05:08:02.097Z,94.73877
2019-01-08T05:09:13.585Z,94.421387
2019-01-08T05:10:25.085Z,94.317627
2019-01-08T05:11:36.589Z,94.274902
2019-01-08T05:12:48.239Z,94.592285
2019-01-08T05:13:59.557Z,94.488525
2019-01-08T05:15:11.069Z,94.378662
2019-01-08T05:16:22.582Z,94.378662
2019-01-08T05:17:34.063Z,94.378662
2019-01-08T05:18:45.579Z,94.488525
2019-01-08T05:19:57.051Z,94.696045
2019-01-08T05:21:08.576Z,94.903564
2019-01-08T05:22:20.075Z,94.903564
2019-01-08T05:23:31.568Z,94.903564
2019-01-08T05:24:43.049Z,94.903564
2019-01-08T05:25:54.570Z,94.696045
2019-01-08T05:27:06.081Z,94.696045
2019-01-08T05:28:17.582Z,94.592285
2019-01-08T05:29:29.057Z,94.592285
2019-01-08T05:30:40.555Z,94.592285
2019-01-08T05:31:52.073Z,94.335938
2019-01-08T05:33:03.557Z,94.335938
2019-01-08T05:34:15.068Z,94.232178
2019-01-08T05:35:26.570Z,94.232178
2019-01-08T05:36:36.102Z,94.232178
2019-01-08T05:37:47.563Z,94.232178
2019-01-08T05:38:59.067Z,94.378662
2019-01-08T05:40:10.599Z,94.378662
2019-01-08T05:41:22.052Z,94.378662
2019-01-08T05:42:33.603Z,94.378662
2019-01-08T05:43:45.076Z,94.592285
2019-01-08T05:44:56.551Z,94.903564
2019-01-08T05:46:08.043Z,94.903564
2019-01-08T05:47:19.565Z,94.799805
2019-01-08T05:48:31.095Z,94.903564
2019-01-08T05:49:42.568Z,94.903564
2019-01-08T05:50:54.068Z,94.799805
2019-01-08T05:52:05.590Z,94.65332
2019-01-08T05:53:17.074Z,94.439697
2019-01-08T05:54:28.554Z,94.128418
2019-01-08T05:55:39.059Z,94.335938
2019-01-08T05:56:50.573Z,94.232178
2019-01-08T05:58:02.054Z,94.128418
2019-01-08T05:59:13.643Z,94.085693
2019-01-08T06:00:25.068Z,93.981934
2019-01-08T06:01:36.570Z,93.878174
2019-01-08T06:02:48.082Z,93.981934
2019-01-08T06:03:59.587Z,94.085693
2019-01-08T06:05:11.067Z,93.878174
2019-01-08T06:06:22.548Z,93.878174
2019-01-08T06:07:34.069Z,93.670654
2019-01-08T06:08:43.620Z,93.353271
2019-01-08T06:09:55.081Z,93.670654
2019-01-08T06:11:06.568Z,93.878174
2019-01-08T06:12:18.067Z,93.878174
2019-01-08T06:13:29.559Z,93.878174
2019-01-08T06:14:41.052Z,93.52417
2019-01-08T06:15:52.571Z,93.52417
2019-01-08T06:17:04.055Z,93.414307
2019-01-08T06:18:15.561Z,93.206787
2019-01-08T06:19:27.053Z,93.414307
2019-01-08T06:20:38.581Z,93.206787
2019-01-08T06:21:50.059Z,92.895508
2019-01-08T06:23:01.568Z,92.327881
2019-01-08T06:24:13.051Z,92.541504
2019-01-08T06:25:24.546Z,92.437744
2019-01-08T06:26:36.035Z,92.327881
2019-01-08T06:27:47.555Z,92.541504
2019-01-08T06:28:59.067Z,92.749023
2019-01-08T06:30:10.555Z,93.060303
2019-01-08T06:31:22.716Z,92.749023
2019-01-08T06:32:33.562Z,92.749023
2019-01-08T06:33:45.066Z,92.749023
2019-01-08T06:34:56.549Z,92.645264
2019-01-08T06:36:08.043Z,92.327881
2019-01-08T06:37:19.599Z,92.437744
2019-01-08T06:38:31.063Z,92.437744
2019-01-08T06:39:42.553Z,92.437744
2019-01-08T06:40:57.651Z,92.224121
2019-01-08T06:42:05.577Z,92.327881
2019-01-08T06:43:17.575Z,92.437744
2019-01-08T06:44:28.569Z,92.541504
2019-01-08T06:45:40.044Z,92.224121
2019-01-08T06:46:49.590Z,92.749023
2019-01-08T06:48:01.057Z,92.327881
2019-01-08T06:49:12.541Z,92.749023
2019-01-08T06:50:24.076Z,92.852783
2019-01-08T06:51:35.538Z,92.645264
2019-01-08T06:52:47.082Z,92.224121
2019-01-08T06:53:58.555Z,92.120361
2019-01-08T06:55:10.057Z,92.224121
2019-01-08T06:56:21.593Z,92.120361
2019-01-08T06:57:33.067Z,92.327881
2019-01-08T06:58:44.583Z,92.541504
2019-01-08T06:59:54.135Z,92.645264
2019-01-08T07:01:05.567Z,92.749023
2019-01-08T07:02:16.069Z,92.645264
2019-01-08T07:03:27.572Z,92.327881
2019-01-08T07:04:39.055Z,92.224121
2019-01-08T07:05:50.534Z,92.327881
2019-01-08T07:07:02.055Z,92.541504
2019-01-08T07:08:13.546Z,92.645264
2019-01-08T07:09:25.059Z,92.749023
2019-01-08T07:10:36.566Z,92.541504
2019-01-08T07:11:48.057Z,92.749023
2019-01-08T07:12:59.557Z,92.956543
2019-01-08T07:14:11.063Z,92.956543
2019-01-08T07:15:22.530Z,93.060303
2019-01-08T07:16:33.056Z,93.060303
2019-01-08T07:17:44.565Z,92.852783
2019-01-08T07:18:56.103Z,93.164062
2019-01-08T07:20:07.560Z,93.481445
2019-01-08T07:21:19.067Z,93.164062
2019-01-08T07:22:30.546Z,92.852783
2019-01-08T07:23:42.074Z,93.060303
2019-01-08T07:24:53.546Z,92.956543
2019-01-08T07:26:05.054Z,92.852783
2019-01-08T07:27:16.849Z,92.852783
2019-01-08T07:28:29.295Z,92.852783
2019-01-08T07:29:39.565Z,93.206787
2019-01-08T07:30:51.058Z,93.310547
2019-01-08T07:32:02.570Z,92.852783
2019-01-08T07:33:14.074Z,93.060303
2019-01-08T07:34:25.569Z,93.206787
2019-01-08T07:35:38.060Z,93.62793
2019-01-08T07:36:49.538Z,93.835449
2019-01-08T07:38:01.045Z,93.62793
2019-01-08T07:39:12.540Z,93.62793
2019-01-08T07:40:24.067Z,93.414307
2019-01-08T07:41:35.545Z,93.371582
2019-01-08T07:42:47.059Z,93.267822
2019-01-08T07:43:58.560Z,92.645264
2019-01-08T07:45:10.052Z,92.541504
2019-01-08T07:46:21.532Z,92.749023
2019-01-08T07:47:33.046Z,92.852783
2019-01-08T07:48:44.567Z,92.956543
2019-01-08T07:49:56.054Z,93.060303
2019-01-08T07:51:07.560Z,92.749023
2019-01-08T07:52:19.066Z,92.645264
2019-01-08T07:53:30.545Z,92.437744
2019-01-08T07:54:42.067Z,92.224121
2019-01-08T07:55:53.552Z,92.120361
2019-01-08T07:57:03.129Z,92.224121
2019-01-08T07:58:14.549Z,92.437744
2019-01-08T07:59:26.068Z,92.541504
2019-01-08T08:00:37.581Z,92.645264
2019-01-08T08:01:50.049Z,92.224121
2019-01-08T08:03:01.547Z,92.437744
2019-01-08T08:04:13.219Z,92.956543
2019-01-08T08:05:24.556Z,92.645264
2019-01-08T08:06:36.061Z,91.870117
2019-01-08T08:07:47.548Z,91.870117
2019-01-08T08:08:59.067Z,91.766357
2019-01-08T08:10:10.526Z,91.558838
2019-01-08T08:11:22.045Z,91.870117
2019-01-08T08:12:33.556Z,92.181396
2019-01-08T08:13:44.046Z,92.181396
2019-01-08T08:14:55.553Z,91.662598
2019-01-08T08:16:07.082Z,91.973877
2019-01-08T08:17:18.531Z,91.766357
2019-01-08T08:18:30.032Z,91.766357
2019-01-08T08:19:41.554Z,91.143799
2019-01-08T08:20:54.057Z,91.455078
2019-01-08T08:22:03.622Z,91.766357
2019-01-08T08:23:15.038Z,91.973877
2019-01-08T08:24:26.559Z,91.870117
2019-01-08T08:25:38.041Z,92.224121
2019-01-08T08:26:49.544Z,92.120361
2019-01-08T08:28:01.033Z,92.016602
2019-01-08T08:29:12.605Z,91.912842
2019-01-08T08:30:26.186Z,92.120361
2019-01-08T08:31:34.548Z,91.662598
2019-01-08T08:32:46.032Z,91.809082
2019-01-08T08:33:57.561Z,90.618896
2019-01-08T08:35:09.032Z,90.618896
2019-01-08T08:36:20.555Z,90.930176
2019-01-08T08:37:32.048Z,90.722656
2019-01-08T08:38:43.549Z,90.930176
2019-01-08T08:39:55.182Z,90.722656
2019-01-08T08:41:06.563Z,90.930176
2019-01-08T08:42:18.068Z,90.515137
2019-01-08T08:43:29.545Z,90.411377
2019-01-08T08:44:41.048Z,91.143799
2019-01-08T08:45:52.534Z,90.618896
2019-01-08T08:47:04.043Z,90.100098
2019-01-08T08:48:15.528Z,90.203857
2019-01-08T08:49:32.083Z,90.618896
2019-01-08T08:50:41.595Z,90.057373
2019-01-08T08:51:51.116Z,89.953613
2019-01-08T08:53:00.647Z,89.746094
2019-01-08T08:54:10.194Z,90.264893
2019-01-08T08:55:19.820Z,89.324951
2019-01-08T08:56:29.319Z,88.555908
2019-01-08T08:57:38.864Z,88.555908
2019-01-08T08:58:48.409Z,88.348389
2019-01-08T08:59:57.942Z,88.244629
2019-01-08T09:01:07.466Z,88.452148
2019-01-08T09:02:16.969Z,87.82959
2019-01-08T09:03:26.470Z,88.244629
2019-01-08T09:04:36.070Z,88.244629
2019-01-08T09:05:45.603Z,87.72583
2019-01-08T09:06:55.158Z,87.304688
2019-01-08T09:08:04.667Z,87.518311
2019-01-08T09:09:14.266Z,87.475586
2019-01-08T09:10:23.815Z,87.268066
2019-01-08T09:11:33.328Z,86.749268
2019-01-08T09:12:42.840Z,86.431885
2019-01-08T09:13:52.382Z,86.535645
2019-01-08T09:15:01.929Z,86.645508
2019-01-08T09:16:11.478Z,87.164307
2019-01-08T09:17:21.002Z,85.980225
2019-01-08T09:18:30.519Z,85.314941
2019-01-08T09:19:40.036Z,84.692383
2019-01-08T09:20:49.561Z,84.484863
2019-01-08T09:21:59.067Z,85.003662
2019-01-08T09:23:08.593Z,84.899902
2019-01-08T09:24:18.118Z,85.003662
2019-01-08T09:25:27.669Z,84.899902
2019-01-08T09:26:37.218Z,84.899902
2019-01-08T09:27:46.757Z,85.455322
2019-01-08T09:28:56.279Z,85.876465
2019-01-08T09:30:05.903Z,86.291504
2019-01-08T09:31:15.827Z,86.956787
2019-01-08T09:32:24.914Z,87.164307
2019-01-08T09:33:34.511Z,87.82959
2019-01-08T09:34:43.017Z,88.555908
2019-01-08T09:35:52.607Z,89.324951
2019-01-08T09:37:02.237Z,90.057373
2019-01-08T09:38:11.792Z,90.515137
2019-01-08T09:39:21.379Z,91.558838
2019-01-08T09:40:30.993Z,91.870117
2019-01-08T09:41:40.536Z,91.601562
2019-01-08T09:42:50.081Z,92.224121
2019-01-08T09:43:59.649Z,92.327881
2019-01-08T09:45:09.202Z,92.224121
2019-01-08T09:46:18.715Z,92.016602
2019-01-08T09:47:28.245Z,91.973877
2019-01-08T09:48:37.764Z,92.181396
2019-01-08T09:49:47.293Z,91.870117
2019-01-08T09:50:56.813Z,91.455078
2019-01-08T09:52:06.394Z,91.870117
2019-01-08T09:53:15.858Z,91.766357
2019-01-08T09:54:25.391Z,91.662598
2019-01-08T09:55:34.943Z,91.870117
2019-01-08T09:56:44.456Z,91.247559
2019-01-08T09:57:53.975Z,91.662598
2019-01-08T09:59:03.512Z,91.766357
2019-01-08T10:00:13.080Z,91.662598
2019-01-08T10:01:23.970Z,91.662598
2019-01-08T10:02:32.242Z,91.101074
2019-01-08T10:03:41.761Z,91.204834
2019-01-08T10:04:51.288Z,90.893555
2019-01-08T10:06:00.818Z,90.997314
2019-01-08T10:07:10.390Z,90.057373
2019-01-08T10:08:19.962Z,90.264893
2019-01-08T10:09:29.492Z,90.014648
2019-01-08T10:10:39.061Z,89.910889
2019-01-08T10:11:48.581Z,90.222168
2019-01-08T10:12:58.087Z,89.807129
2019-01-08T10:14:07.624Z,90.222168
2019-01-08T10:15:17.149Z,89.703369
2019-01-08T10:16:26.678Z,89.39209
2019-01-08T10:17:36.212Z,89.49585
2019-01-08T10:18:45.754Z,89.39209
2019-01-08T10:19:55.295Z,88.977051
2019-01-08T10:21:05.814Z,89.18457
2019-01-08T10:22:15.316Z,88.763428
2019-01-08T10:23:24.862Z,88.519287
2019-01-08T10:24:34.398Z,88.098145
2019-01-08T10:25:43.949Z,88.311768
2019-01-08T10:26:53.465Z,87.164307
2019-01-08T10:28:02.998Z,87.164307
2019-01-08T10:29:12.658Z,87.579346
2019-01-08T10:30:22.203Z,86.706543
2019-01-08T10:31:32.503Z,86.499023
2019-01-08T10:32:41.273Z,86.810303
2019-01-08T10:33:50.797Z,86.187744
2019-01-08T10:35:00.316Z,86.187744
2019-01-08T10:36:09.856Z,85.107422
2019-01-08T10:37:19.381Z,85.522461
2019-01-08T10:38:28.908Z,85.107422
2019-01-08T10:39:38.431Z,84.899902
2019-01-08T10:40:47.974Z,85.5896
2019-01-08T10:41:57.501Z,84.649658
2019-01-08T10:43:07.057Z,83.740234
2019-01-08T10:44:16.566Z,84.118652
2019-01-08T10:45:26.128Z,82.458496
2019-01-08T10:46:37.472Z,82.080078
2019-01-08T10:47:45.187Z,82.635498
2019-01-08T10:48:54.752Z,83.679199
2019-01-08T10:50:04.313Z,83.36792
2019-01-08T10:51:13.878Z,83.782959
2019-01-08T10:52:23.419Z,83.1604
2019-01-08T10:53:32.945Z,83.050537
2019-01-08T10:54:42.498Z,82.946777
2019-01-08T10:55:52.025Z,83.26416
2019-01-08T10:57:01.554Z,83.050537
2019-01-08T10:58:11.060Z,83.575439
2019-01-08T10:59:20.568Z,83.679199
2019-01-08T11:00:30.109Z,84.234619
2019-01-08T11:01:40.572Z,84.338379
2019-01-08T11:02:49.131Z,84.545898
2019-01-08T11:03:58.672Z,84.27124
2019-01-08T11:05:08.205Z,84.796143
2019-01-08T11:06:17.735Z,85.626221
2019-01-08T11:07:27.268Z,86.187744
2019-01-08T11:08:36.797Z,86.706543
2019-01-08T11:09:46.307Z,87.646484
2019-01-08T11:10:55.822Z,88.165283
2019-01-08T11:12:05.350Z,88.415527
2019-01-08T11:13:14.858Z,89.245605
2019-01-08T11:14:24.383Z,89.660645
2019-01-08T11:15:33.933Z,90.014648
2019-01-08T11:16:43.538Z,90.435791
2019-01-08T11:17:53.082Z,89.910889
2019-01-08T11:19:02.600Z,90.325928
2019-01-08T11:20:12.127Z,90.789795
2019-01-08T11:21:21.665Z,91.101074
2019-01-08T11:22:31.183Z,91.308594
2019-01-08T11:23:40.727Z,91.516113
2019-01-08T11:24:50.249Z,91.412354
2019-01-08T11:25:59.768Z,91.101074
2019-01-08T11:27:09.310Z,91.204834
2019-01-08T11:28:18.846Z,91.619873
2019-01-08T11:29:28.371Z,91.723633
2019-01-08T11:30:37.899Z,91.308594
2019-01-08T11:31:48.894Z,91.412354
2019-01-08T11:32:56.924Z,91.723633
2019-01-08T11:34:06.481Z,92.034912
2019-01-08T11:35:16.007Z,91.516113
2019-01-08T11:36:25.542Z,90.789795
2019-01-08T11:37:35.092Z,90.435791
2019-01-08T11:38:44.680Z,90.435791
2019-01-08T11:39:54.224Z,90.435791
2019-01-08T11:41:03.742Z,89.807129
2019-01-08T11:42:13.287Z,89.599609
2019-01-08T11:43:22.843Z,88.519287
2019-01-08T11:44:32.368Z,88.098145
2019-01-08T11:45:41.913Z,87.536621
2019-01-08T11:46:51.437Z,87.121582
2019-01-08T11:48:04.010Z,87.536621
2019-01-08T11:49:10.440Z,87.121582
2019-01-08T11:50:19.988Z,86.914062
2019-01-08T11:51:29.539Z,86.706543
2019-01-08T11:52:39.052Z,86.291504
2019-01-08T11:53:48.642Z,85.980225
2019-01-08T11:54:58.156Z,85.876465
2019-01-08T11:56:07.677Z,85.351562
2019-01-08T11:57:17.251Z,85.418701
2019-01-08T11:58:27.039Z,85.211182
2019-01-08T11:59:36.580Z,85.107422
2019-01-08T12:00:46.175Z,84.692383
2019-01-08T12:01:57.300Z,85.314941
2019-01-08T12:03:05.240Z,85.107422
2019-01-08T12:04:14.763Z,84.899902
2019-01-08T12:05:24.325Z,84.899902
2019-01-08T12:06:33.823Z,85.211182
2019-01-08T12:07:43.415Z,84.796143
2019-01-08T12:08:52.992Z,84.381104
2019-01-08T12:10:02.547Z,84.0271
2019-01-08T12:11:12.063Z,83.300781
2019-01-08T12:12:21.630Z,83.404541
2019-01-08T12:13:31.182Z,82.843018
2019-01-08T12:14:40.683Z,81.768799
2019-01-08T12:15:50.269Z,82.702637
2019-01-08T12:16:59.875Z,82.391357
2019-01-08T12:18:09.398Z,81.732178
2019-01-08T12:19:18.941Z,79.510498
2019-01-08T12:20:28.453Z,79.376221
2019-01-08T12:21:38.032Z,79.827881
2019-01-08T12:22:47.607Z,79.6875
2019-01-08T12:23:57.144Z,80.0354
2019-01-08T12:25:06.688Z,80.450439
2019-01-08T12:26:16.229Z,80.310059
2019-01-08T12:27:25.795Z,79.095459
2019-01-08T12:28:35.298Z,78.442383
2019-01-08T12:29:44.831Z,77.850342
2019-01-08T12:30:54.376Z,78.369141
2019-01-08T12:32:06.095Z,78.820801
2019-01-08T12:33:13.418Z,79.064941
2019-01-08T12:34:22.986Z,78.442383
2019-01-08T12:35:32.517Z,78.4729
2019-01-08T12:36:42.028Z,77.435303
2019-01-08T12:37:51.625Z,76.330566
2019-01-08T12:39:01.140Z,75.256348
2019-01-08T12:40:10.665Z,76.123047
2019-01-08T12:41:20.233Z,77.264404
2019-01-08T12:42:29.806Z,76.745605
2019-01-08T12:43:39.369Z,77.923584
2019-01-08T12:44:48.886Z,77.508545
2019-01-08T12:45:58.460Z,76.678467
2019-01-08T12:47:08.040Z,76.019287
2019-01-08T12:48:17.617Z,73.773193
2019-01-08T12:49:27.164Z,72.943115
2019-01-08T12:50:36.859Z,72.08252
2019-01-08T12:51:46.381Z,73.596191
2019-01-08T12:52:56.005Z,75.292969
2019-01-08T12:54:05.598Z,75.085449
2019-01-08T12:55:15.150Z,76.159668
2019-01-08T12:56:24.695Z,76.055908
2019-01-08T12:57:34.273Z,76.293945
2019-01-08T12:58:43.797Z,76.708984
2019-01-08T12:59:53.449Z,76.605225
2019-01-08T13:01:03.023Z,77.124023
2019-01-08T13:02:14.681Z,76.538086
2019-01-08T13:03:22.257Z,76.953125
2019-01-08T13:04:31.729Z,75.982666
2019-01-08T13:05:41.294Z,77.954102
2019-01-08T13:06:50.827Z,77.020264
2019-01-08T13:08:00.354Z,76.190186
2019-01-08T13:09:09.893Z,76.470947
2019-01-08T13:10:20.337Z,74.914551
2019-01-08T13:11:29.876Z,73.425293
2019-01-08T13:12:39.443Z,72.943115
2019-01-08T13:13:48.991Z,70.941162
2019-01-08T13:14:58.524Z,70.422363
2019-01-08T13:16:08.068Z,70.050049
2019-01-08T13:17:18.635Z,70.050049
2019-01-08T13:18:28.182Z,68.670654
2019-01-08T13:19:37.729Z,67.712402
2019-01-08T13:20:47.286Z,66.571045
2019-01-08T13:21:56.808Z,66.912842
2019-01-08T13:23:06.393Z,67.193604
2019-01-08T13:24:15.944Z,67.193604
2019-01-08T13:25:25.470Z,67.950439
2019-01-08T13:26:34.991Z,67.980957
2019-01-08T13:27:44.576Z,68.97583
2019-01-08T13:28:54.105Z,70.355225
2019-01-08T13:30:03.676Z,70.489502
2019-01-08T13:31:13.204Z,70.623779
2019-01-08T13:32:23.182Z,71.350098
2019-01-08T13:33:32.291Z,72.283936
2019-01-08T13:34:41.819Z,71.801758
2019-01-08T13:35:51.364Z,71.179199
2019-01-08T13:37:00.957Z,71.905518
2019-01-08T13:38:10.493Z,72.039795
2019-01-08T13:39:20.026Z,72.662354
2019-01-08T13:40:29.570Z,72.869873
2019-01-08T13:41:39.125Z,73.077393
2019-01-08T13:42:48.778Z,73.00415
2019-01-08T13:43:58.325Z,72.277832
2019-01-08T13:45:07.868Z,71.862793
2019-01-08T13:46:17.442Z,71.655273
2019-01-08T13:47:27.035Z,72.277832
2019-01-08T13:48:36.600Z,72.692871
2019-01-08T13:49:46.607Z,72.418213
2019-01-08T13:50:54.674Z,72.833252
2019-01-08T13:52:04.271Z,72.833252
2019-01-08T13:53:13.833Z,72.729492
2019-01-08T13:54:23.374Z,72.625732
2019-01-08T13:55:32.906Z,72.937012
2019-01-08T13:56:42.441Z,72.625732
2019-01-08T13:57:51.982Z,72.625732
2019-01-08T13:59:01.616Z,72.314453
2019-01-08T14:00:11.140Z,72.625732
2019-01-08T14:01:20.707Z,73.071289
2019-01-08T14:02:31.922Z,72.967529
2019-01-08T14:03:39.816Z,73.803711
2019-01-08T14:04:49.340Z,73.596191
2019-01-08T14:05:58.890Z,73.181152
2019-01-08T14:07:08.503Z,73.388672
2019-01-08T14:08:18.059Z,72.967529
2019-01-08T14:09:27.576Z,72.967529
2019-01-08T14:10:37.108Z,73.388672
2019-01-08T14:11:46.681Z,73.596191
2019-01-08T14:12:56.215Z,73.492432
2019-01-08T14:14:05.755Z,73.071289
2019-01-08T14:15:15.293Z,72.55249
2019-01-08T14:16:24.825Z,73.071289
2019-01-08T14:17:34.400Z,73.492432
2019-01-08T14:18:43.962Z,73.492432
2019-01-08T14:19:53.535Z,74.11499
2019-01-08T14:21:03.033Z,73.071289
2019-01-08T14:22:12.604Z,73.492432
2019-01-08T14:23:22.130Z,73.388672
2019-01-08T14:24:32.655Z,73.492432
2019-01-08T14:25:42.170Z,73.907471
2019-01-08T14:26:51.698Z,74.32251
2019-01-08T14:28:01.266Z,74.42627
2019-01-08T14:29:10.893Z,75.292969
2019-01-08T14:30:20.415Z,75.500488
2019-01-08T14:31:29.934Z,74.77417
2019-01-08T14:32:40.668Z,74.981689
2019-01-08T14:33:49.003Z,74.981689
2019-01-08T14:34:58.512Z,74.87793
2019-01-08T14:36:08.102Z,74.87793
2019-01-08T14:37:17.656Z,74.67041
2019-01-08T14:38:27.210Z,75.189209
2019-01-08T14:39:37.194Z,75.292969
2019-01-08T14:40:46.888Z,75.500488
2019-01-08T14:41:56.407Z,75.085449
2019-01-08T14:43:13.535Z,75.085449
2019-01-08T14:44:16.513Z,75.085449
2019-01-08T14:45:26.078Z,75.396729
2019-01-08T14:46:35.608Z,75.500488
2019-01-08T14:47:45.212Z,76.019287
2019-01-08T14:48:54.722Z,76.123047
2019-01-08T14:50:04.248Z,76.226807
2019-01-08T14:51:13.781Z,76.434326
2019-01-08T14:52:23.323Z,77.093506
2019-01-08T14:53:32.872Z,76.885986
2019-01-08T14:54:42.410Z,76.849365
2019-01-08T14:55:51.933Z,76.745605
2019-01-08T14:57:01.475Z,76.849365
2019-01-08T14:58:11.025Z,77.160645
2019-01-08T14:59:21.026Z,77.093506
2019-01-08T15:00:31.601Z,76.641846
2019-01-08T15:01:41.143Z,76.538086
2019-01-08T15:02:50.758Z,76.953125
2019-01-08T15:04:00.309Z,76.885986
2019-01-08T15:05:09.857Z,76.953125
2019-01-08T15:06:19.381Z,77.093506
2019-01-08T15:07:28.990Z,77.612305
2019-01-08T15:08:38.648Z,77.508545
2019-01-08T15:09:48.291Z,77.404785
2019-01-08T15:10:57.937Z,76.989746
2019-01-08T15:12:07.486Z,77.197266
2019-01-08T15:13:17.043Z,77.197266
2019-01-08T15:14:26.640Z,77.301025
2019-01-08T15:15:36.155Z,77.404785
2019-01-08T15:16:45.699Z,77.404785
2019-01-08T15:17:55.258Z,77.404785
2019-01-08T15:19:04.824Z,77.093506
2019-01-08T15:20:15.010Z,77.404785
2019-01-08T15:21:24.548Z,77.404785
2019-01-08T15:22:34.142Z,77.722168
2019-01-08T15:23:43.777Z,77.825928
2019-01-08T15:24:53.342Z,77.722168
2019-01-08T15:26:02.901Z,77.508545
2019-01-08T15:27:12.566Z,77.508545
2019-01-08T15:28:22.331Z,77.929688
2019-01-08T15:29:31.966Z,77.929688
2019-01-08T15:30:41.514Z,77.612305
2019-01-08T15:31:51.055Z,77.612305
2019-01-08T15:33:00.613Z,77.825928
2019-01-08T15:34:10.125Z,78.588867
2019-01-08T15:35:19.680Z,77.612305
2019-01-08T15:36:29.232Z,78.240967
2019-01-08T15:37:38.797Z,77.929688
2019-01-08T15:38:48.398Z,77.722168
2019-01-08T15:39:57.952Z,77.612305
2019-01-08T15:41:07.595Z,78.137207
2019-01-08T15:42:17.131Z,77.722168
2019-01-08T15:43:26.692Z,78.173828
2019-01-08T15:44:36.234Z,77.856445
2019-01-08T15:45:45.759Z,77.960205
2019-01-08T15:46:55.287Z,77.960205
2019-01-08T15:48:05.346Z,78.070068
2019-01-08T15:49:14.429Z,78.485107
2019-01-08T15:50:23.937Z,78.485107
2019-01-08T15:51:33.493Z,78.485107
2019-01-08T15:52:43.170Z,78.277588
2019-01-08T15:53:52.890Z,78.173828
2019-01-08T15:55:03.463Z,77.856445
2019-01-08T15:56:13.005Z,77.856445
2019-01-08T15:57:22.527Z,77.856445
2019-01-08T15:58:32.069Z,77.856445
2019-01-08T15:59:41.588Z,77.960205
2019-01-08T16:00:51.109Z,77.545166
2019-01-08T16:02:00.625Z,77.233887
2019-01-08T16:03:10.191Z,77.337646
2019-01-08T16:04:19.717Z,77.752686
2019-01-08T16:05:29.279Z,77.856445
2019-01-08T16:06:38.796Z,77.752686
2019-01-08T16:07:48.338Z,78.173828
2019-01-08T16:08:57.849Z,77.752686
2019-01-08T16:10:07.362Z,77.337646
2019-01-08T16:11:16.952Z,77.337646
2019-01-08T16:12:26.475Z,77.545166
2019-01-08T16:13:35.981Z,77.233887
2019-01-08T16:14:45.510Z,77.026367
2019-01-08T16:15:55.089Z,77.441406
2019-01-08T16:17:04.639Z,77.545166
2019-01-08T16:18:14.201Z,78.070068
2019-01-08T16:19:24.710Z,78.070068